createdAt,value
2022-10-04T00:02:31.789Z,99883.06
2022-10-04T00:05:16.514Z,99881.75
2022-10-04T00:07:58.265Z,99876.09
2022-10-04T00:10:34.427Z,99873.13
2022-10-04T00:13:07.690Z,99871.78
2022-10-04T00:15:39.972Z,99870.94
2022-10-04T00:18:40.608Z,99873.38
2022-10-04T00:21:11.886Z,99878.00
2022-10-04T00:23:39.426Z,99872.66
2022-10-04T00:26:29.769Z,99873.59
2022-10-04T00:28:57.385Z,99876.88
2022-10-04T00:31:28.055Z,99875.06
2022-10-04T00:34:19.297Z,99877.03
2022-10-04T00:36:57.362Z,99872.09
2022-10-04T00:39:34.260Z,99879.84
2022-10-04T00:42:39.316Z,99874.19
2022-10-04T00:45:41.601Z,99874.09
2022-10-04T00:48:11.804Z,99880.09
2022-10-04T00:50:47.420Z,99869.78
2022-10-04T00:53:59.124Z,99862.41
2022-10-04T00:56:51.259Z,99864.06
2022-10-04T00:59:42.893Z,99854.88
2022-10-04T01:02:39.323Z,99860.69
2022-10-04T01:05:23.689Z,99863.00
2022-10-04T01:08:19.151Z,99862.41
2022-10-04T01:10:53.100Z,99856.25
2022-10-04T01:13:37.110Z,99856.41
2022-10-04T01:16:25.083Z,99852.38
2022-10-04T01:18:52.960Z,99860.69
2022-10-04T01:21:20.542Z,99850.50
2022-10-04T01:24:21.861Z,99851.00
2022-10-04T01:26:50.216Z,99853.03
2022-10-04T01:29:30.791Z,99855.72
2022-10-04T01:32:01.923Z,99851.13
2022-10-04T01:34:31.225Z,99851.66
2022-10-04T01:37:01.017Z,99853.97
2022-10-04T01:39:29.945Z,99855.72
2022-10-04T01:42:32.516Z,99855.25
2022-10-04T01:45:15.314Z,99860.91
2022-10-04T01:47:54.229Z,99857.34
2022-10-04T01:50:56.233Z,99859.91
2022-10-04T01:53:31.321Z,99843.59
2022-10-04T01:56:17.630Z,99845.91
2022-10-04T01:59:22.068Z,99845.69
2022-10-04T02:02:52.961Z,99853.75
2022-10-04T02:06:00.891Z,99852.97
2022-10-04T02:08:34.839Z,99846.44
2022-10-04T02:11:06.584Z,99840.13
2022-10-04T02:13:41.054Z,99830.97
2022-10-04T02:16:13.319Z,99837.56
2022-10-04T02:18:44.311Z,99835.31
2022-10-04T02:21:14.282Z,99836.00
2022-10-04T02:23:43.389Z,99831.09
2022-10-04T02:26:12.805Z,99838.75
2022-10-04T02:28:40.777Z,99821.38
2022-10-04T02:31:28.035Z,99830.56
2022-10-04T02:33:59.617Z,99844.13
2022-10-04T02:36:29.959Z,99832.94
2022-10-04T02:39:35.658Z,99832.94
2022-10-04T02:42:48.764Z,99835.47
2022-10-04T02:45:38.877Z,99835.34
2022-10-04T02:48:55.887Z,99835.47
2022-10-04T02:51:38.070Z,99829.97
2022-10-04T02:55:04.165Z,99832.78
2022-10-04T02:57:34.980Z,99828.59
2022-10-04T03:00:20.177Z,99833.47
2022-10-04T03:03:25.637Z,99836.22
2022-10-04T03:06:09.314Z,99837.59
2022-10-04T03:08:45.323Z,99843.41
2022-10-04T03:11:19.145Z,99848.31
2022-10-04T03:13:51.426Z,99839.34
2022-10-04T03:16:20.981Z,99837.41
2022-10-04T03:18:54.349Z,99837.59
2022-10-04T03:21:23.991Z,99837.59
2022-10-04T03:23:53.437Z,99837.97
2022-10-04T03:26:46.661Z,99838.41
2022-10-04T03:29:18.294Z,99836.81
2022-10-04T03:31:51.011Z,99836.75
2022-10-04T03:34:36.782Z,99840.03
2022-10-04T03:37:11.421Z,99838.81
2022-10-04T03:39:46.338Z,99844.00
2022-10-04T03:42:28.980Z,99834.69
2022-10-04T03:45:15.788Z,99830.53
2022-10-04T03:47:48.771Z,99832.94
2022-10-04T03:50:33.739Z,99833.22
2022-10-04T03:53:32.797Z,99837.78
2022-10-04T03:56:18.787Z,99849.38
2022-10-04T03:58:47.908Z,99858.28
2022-10-04T04:01:31.320Z,99857.66
2022-10-04T04:04:23.750Z,99854.72
2022-10-04T04:07:20.174Z,99853.09
2022-10-04T04:10:05.602Z,99858.63
2022-10-04T04:13:11.977Z,99851.19
2022-10-04T04:15:43.587Z,99834.44
2022-10-04T04:18:37.724Z,99831.56
2022-10-04T04:21:08.199Z,99839.50
2022-10-04T04:23:54.062Z,99828.88
2022-10-04T04:26:29.030Z,99838.66
2022-10-04T04:29:28.667Z,99832.78
2022-10-04T04:32:13.514Z,99836.50
2022-10-04T04:35:31.557Z,99860.78
2022-10-04T04:38:25.365Z,99853.63
2022-10-04T04:40:55.900Z,99863.19
2022-10-04T04:43:27.666Z,99865.19
2022-10-04T04:46:25.663Z,99860.94
2022-10-04T04:48:53.773Z,99861.97
2022-10-04T04:51:25.808Z,99861.72
2022-10-04T04:53:57.303Z,99864.06
2022-10-04T04:56:29.742Z,99868.25
2022-10-04T04:59:03.835Z,99874.78
2022-10-04T05:01:48.163Z,99876.59
2022-10-04T05:04:23.361Z,99871.47
2022-10-04T05:07:17.187Z,99879.28
2022-10-04T05:09:44.892Z,99869.34
2022-10-04T05:12:23.763Z,99881.47
2022-10-04T05:14:55.346Z,99879.13
2022-10-04T05:17:34.517Z,99877.75
2022-10-04T05:20:04.670Z,99877.59
2022-10-04T05:22:35.135Z,99875.34
2022-10-04T05:25:34.007Z,99882.78
2022-10-04T05:28:03.644Z,99881.38
2022-10-04T05:31:31.393Z,99891.25
2022-10-04T05:34:00.037Z,99894.06
2022-10-04T05:37:42.864Z,99886.16
2022-10-04T05:40:36.908Z,99898.72
2022-10-04T05:43:31.755Z,99904.38
2022-10-04T05:46:31.979Z,99901.66
2022-10-04T05:49:18.179Z,99899.91
2022-10-04T05:52:02.911Z,99914.41
2022-10-04T05:54:35.934Z,99916.16
2022-10-04T05:57:55.295Z,99925.25
2022-10-04T06:01:01.035Z,99929.50
2022-10-04T06:03:54.245Z,99930.31
2022-10-04T06:07:24.412Z,99926.38
2022-10-04T06:10:15.951Z,99935.88
2022-10-04T06:13:41.143Z,99938.91
2022-10-04T06:17:04.512Z,99930.66
2022-10-04T06:19:42.044Z,99937.13
2022-10-04T06:22:23.363Z,99935.63
2022-10-04T06:25:26.353Z,99936.91
2022-10-04T06:28:33.980Z,99937.53
2022-10-04T06:31:47.449Z,99936.63
2022-10-04T06:34:52.114Z,99937.06
2022-10-04T06:37:37.524Z,99945.06
2022-10-04T06:40:43.472Z,99947.59
2022-10-04T06:43:38.609Z,99950.69
2022-10-04T06:47:01.922Z,99956.94
2022-10-04T06:49:53.388Z,99965.47
2022-10-04T06:53:52.729Z,99976.97
2022-10-04T06:57:12.572Z,99977.88
2022-10-04T07:00:14.381Z,99980.81
2022-10-04T07:02:59.708Z,99988.44
2022-10-04T07:05:44.964Z,99998.97
2022-10-04T07:08:31.317Z,99997.84
2022-10-04T07:11:26.646Z,99993.22
2022-10-04T07:14:24.958Z,99985.31
2022-10-04T07:17:03.508Z,99969.63
2022-10-04T07:19:49.674Z,99988.59
2022-10-04T07:22:51.335Z,99986.16
2022-10-04T07:25:34.462Z,99990.94
2022-10-04T07:28:31.586Z,99989.56
2022-10-04T07:31:15.476Z,99992.75
2022-10-04T07:33:50.093Z,99987.00
2022-10-04T07:37:00.206Z,99978.53
2022-10-04T07:40:00.216Z,99987.16
2022-10-04T07:42:47.102Z,99974.50
2022-10-04T07:45:35.011Z,99977.22
2022-10-04T07:48:24.979Z,99973.69
2022-10-04T07:51:19.170Z,99977.25
2022-10-04T07:54:27.338Z,99973.72
2022-10-04T07:58:17.024Z,99978.97
2022-10-04T08:01:07.022Z,99974.22
2022-10-04T08:04:41.206Z,99983.50
2022-10-04T08:07:57.146Z,99983.94
2022-10-04T08:11:19.740Z,99986.00
2022-10-04T08:14:27.709Z,99983.94
2022-10-04T08:17:38.578Z,99978.13
2022-10-04T08:20:49.079Z,99990.84
2022-10-04T08:23:32.557Z,99993.88
2022-10-04T08:27:04.433Z,99999.44
2022-10-04T08:30:09.011Z,100006.72
2022-10-04T08:33:18.412Z,99999.91
2022-10-04T08:36:19.191Z,100010.69
2022-10-04T08:38:59.710Z,99989.47
2022-10-04T08:42:16.770Z,99998.06
2022-10-04T08:45:14.836Z,100007.47
2022-10-04T08:48:24.768Z,100011.38
2022-10-04T08:51:52.018Z,100012.72
2022-10-04T08:55:08.264Z,100014.94
2022-10-04T08:58:31.056Z,100025.66
2022-10-04T09:01:38.628Z,100036.72
2022-10-04T09:04:40.514Z,100031.97
2022-10-04T09:07:44.785Z,100033.31
2022-10-04T09:10:41.158Z,100033.75
2022-10-04T09:13:50.147Z,100025.59
2022-10-04T09:16:48.914Z,100023.69
2022-10-04T09:20:09.036Z,100007.41
2022-10-04T09:23:27.284Z,100012.53
2022-10-04T09:26:33.356Z,100004.81
2022-10-04T09:29:46.715Z,100015.47
2022-10-04T09:32:59.497Z,100020.47
2022-10-04T09:36:31.591Z,100021.59
2022-10-04T09:39:56.252Z,100027.00
2022-10-04T09:43:21.767Z,100023.41
2022-10-04T09:46:21.360Z,100032.06
2022-10-04T09:49:20.204Z,100032.78
2022-10-04T09:52:29.581Z,100046.09
2022-10-04T09:55:47.885Z,100060.63
2022-10-04T09:59:12.513Z,100053.72
2022-10-04T10:02:40.417Z,100056.34
2022-10-04T10:05:48.320Z,100046.34
2022-10-04T10:08:37.235Z,100060.31
2022-10-04T10:12:03.990Z,100065.00
2022-10-04T10:15:16.431Z,100058.91
2022-10-04T10:18:23.297Z,100058.91
2022-10-04T10:21:47.628Z,100051.44
2022-10-04T10:24:45.562Z,100058.28
2022-10-04T10:27:59.135Z,100050.50
2022-10-04T10:30:51.428Z,100054.19
2022-10-04T10:34:19.740Z,100059.56
2022-10-04T10:37:03.184Z,100060.94
2022-10-04T10:40:27.687Z,100063.25
2022-10-04T10:43:28.064Z,100066.03
2022-10-04T10:46:42.831Z,100063.22
2022-10-04T10:50:00.159Z,100052.59
2022-10-04T10:53:15.007Z,100065.88
2022-10-04T10:56:35.424Z,100074.81
2022-10-04T10:59:50.617Z,100066.84
2022-10-04T11:03:32.719Z,100066.03
2022-10-04T11:07:14.223Z,100078.09
2022-10-04T11:10:21.683Z,100074.19
2022-10-04T11:13:42.036Z,100072.50
2022-10-04T11:16:49.186Z,100069.50
2022-10-04T11:19:44.542Z,100070.25
2022-10-04T11:23:08.684Z,100077.06
2022-10-04T11:26:07.133Z,100079.91
2022-10-04T11:28:59.236Z,100084.78
2022-10-04T11:32:02.590Z,100072.72
2022-10-04T11:35:29.048Z,100075.84
2022-10-04T11:39:02.695Z,100083.47
2022-10-04T11:42:31.188Z,100081.53
2022-10-04T11:45:40.063Z,100104.00
2022-10-04T11:48:23.697Z,100087.91
2022-10-04T11:51:26.244Z,100088.78
2022-10-04T11:54:57.010Z,100091.66
2022-10-04T11:57:38.671Z,100089.69
2022-10-04T12:00:20.985Z,100082.00
2022-10-04T12:03:21.503Z,100089.28
2022-10-04T12:06:53.470Z,100088.41
2022-10-04T12:10:09.927Z,100082.72
2022-10-04T12:13:16.934Z,100078.00
2022-10-04T12:16:05.561Z,100085.31
2022-10-04T12:19:00.152Z,100090.50
2022-10-04T12:21:58.371Z,100090.50
2022-10-04T12:25:03.294Z,100090.09
2022-10-04T12:28:12.905Z,100099.63
2022-10-04T12:31:23.348Z,100088.69
2022-10-04T12:34:14.976Z,100093.53
2022-10-04T12:37:40.501Z,100091.88
2022-10-04T12:41:01.191Z,100091.78
2022-10-04T12:44:19.170Z,100091.56
2022-10-04T12:47:23.980Z,100100.94
2022-10-04T12:50:31.732Z,100085.56
2022-10-04T12:53:36.911Z,100090.09
2022-10-04T12:57:04.237Z,100089.38
2022-10-04T12:59:46.497Z,100099.31
2022-10-04T13:03:13.221Z,100095.94
2022-10-04T13:05:47.517Z,100099.91
2022-10-04T14:04:59.881Z,100127.50
2022-10-04T14:08:21.575Z,100130.13
2022-10-04T14:10:58.654Z,100130.84
2022-10-04T14:14:14.737Z,100128.09
2022-10-04T14:17:23.378Z,100135.81
2022-10-04T14:20:57.717Z,100130.97
2022-10-04T14:24:34.616Z,100132.13
2022-10-04T14:27:59.550Z,100132.06
2022-10-04T14:31:13.096Z,100133.50
2022-10-04T14:34:47.748Z,100137.34
2022-10-04T14:38:11.068Z,100132.81
2022-10-04T14:41:10.808Z,100139.63
2022-10-04T14:44:12.338Z,100143.91
2022-10-04T14:47:11.568Z,100155.75
2022-10-04T14:50:36.046Z,100152.97
2022-10-04T14:53:41.692Z,100155.00
2022-10-04T14:56:29.125Z,100157.34
2022-10-04T14:59:15.512Z,100164.28
2022-10-04T15:02:49.358Z,100169.97
2022-10-04T15:06:00.115Z,100174.69
2022-10-04T15:09:02.834Z,100189.59
2022-10-04T15:12:27.210Z,100178.84
2022-10-04T15:15:14.546Z,100189.34
2022-10-04T15:18:23.733Z,100191.94
2022-10-04T15:21:53.245Z,100194.69
2022-10-04T15:24:51.121Z,100198.59
2022-10-04T15:27:34.749Z,100190.72
2022-10-04T15:30:53.757Z,100194.53
2022-10-04T15:34:00.566Z,100195.38
2022-10-04T15:37:25.653Z,100191.78
2022-10-04T15:40:20.877Z,100193.00
2022-10-04T15:43:25.122Z,100195.75
2022-10-04T15:46:24.320Z,100200.03
2022-10-04T15:49:30.581Z,100200.00
2022-10-04T15:52:38.107Z,100210.41
2022-10-04T15:55:50.634Z,100199.16
2022-10-04T15:59:07.425Z,100211.41
2022-10-04T16:01:45.997Z,100213.03
2022-10-04T16:04:29.481Z,100212.16
2022-10-04T16:07:32.348Z,100222.66
2022-10-04T16:10:33.070Z,100220.94
2022-10-04T16:13:40.067Z,100224.44
2022-10-04T16:16:19.492Z,100231.19
2022-10-04T16:19:30.356Z,100231.16
2022-10-04T16:22:28.219Z,100240.84
2022-10-04T16:25:39.838Z,100234.47
2022-10-04T16:28:44.976Z,100241.88
2022-10-04T16:31:28.698Z,100244.31
2022-10-04T16:34:59.478Z,100249.34
2022-10-04T16:37:42.402Z,100240.50
2022-10-04T16:40:12.173Z,100245.47
2022-10-04T16:43:01.401Z,100254.41
2022-10-04T16:46:12.057Z,100247.53
2022-10-04T16:48:56.182Z,100254.00
2022-10-04T16:52:14.787Z,100255.50
2022-10-04T16:55:08.493Z,100256.88
2022-10-04T16:57:37.644Z,100262.09
2022-10-04T17:00:36.399Z,100264.19
2022-10-04T17:03:25.160Z,100267.75
2022-10-04T17:06:31.321Z,100278.44
2022-10-04T17:09:30.826Z,100286.34
2022-10-04T17:12:45.798Z,100282.66
2022-10-04T17:15:15.175Z,100283.31
2022-10-04T17:18:26.690Z,100298.03
2022-10-04T17:21:29.031Z,100296.25
2022-10-04T17:24:44.842Z,100302.19
2022-10-04T17:27:53.571Z,100302.00
2022-10-04T17:30:31.290Z,100300.94
2022-10-04T17:33:17.890Z,100300.03
2022-10-04T17:36:07.818Z,100304.56
2022-10-04T17:38:44.730Z,100304.38
2022-10-04T17:41:42.944Z,100304.13
2022-10-04T17:45:07.953Z,100304.88
2022-10-04T17:48:24.515Z,100299.06
2022-10-04T17:51:41.415Z,100305.03
2022-10-04T17:54:50.458Z,100314.09
2022-10-04T17:57:35.699Z,100316.59
2022-10-04T18:00:50.939Z,100317.31
2022-10-04T18:03:26.802Z,100322.97
2022-10-04T18:06:31.945Z,100316.34
2022-10-04T18:09:28.603Z,100327.91
2022-10-04T18:12:43.538Z,100328.34
2022-10-04T18:15:35.701Z,100335.66
2022-10-04T18:18:22.453Z,100332.88
2022-10-04T18:20:54.925Z,100334.72
2022-10-04T18:23:30.168Z,100335.56
2022-10-04T18:26:18.440Z,100339.31
2022-10-04T18:28:51.259Z,100340.41
2022-10-04T18:31:30.047Z,100347.19
2022-10-04T18:34:28.424Z,100340.25
2022-10-04T18:37:40.960Z,100356.47
2022-10-04T18:40:22.311Z,100347.63
2022-10-04T18:43:01.972Z,100345.44
2022-10-04T18:45:35.581Z,100360.81
2022-10-04T18:48:18.427Z,100356.53
2022-10-04T18:50:48.558Z,100353.88
2022-10-04T18:53:43.782Z,100355.44
2022-10-04T18:56:13.777Z,100364.47
2022-10-04T19:00:12.170Z,100366.50
2022-10-04T19:03:20.064Z,100373.28
2022-10-04T19:06:12.220Z,100376.47
2022-10-04T19:09:38.279Z,100376.03
2022-10-04T19:12:21.856Z,100381.50
2022-10-04T19:15:47.077Z,100385.13
2022-10-04T19:18:44.753Z,100387.31
2022-10-04T19:22:01.286Z,100384.22
2022-10-04T19:24:44.602Z,100392.16
2022-10-04T19:27:48.791Z,100388.25
2022-10-04T19:30:28.506Z,100397.22
2022-10-04T19:33:42.317Z,100408.41
2022-10-04T19:36:52.262Z,100400.38
2022-10-04T19:39:27.554Z,100408.91
2022-10-04T19:42:19.307Z,100404.50
2022-10-04T19:45:12.317Z,100413.72
2022-10-04T19:47:58.494Z,100414.94
2022-10-04T19:50:40.044Z,100418.25
2022-10-04T19:53:43.010Z,100425.91
2022-10-04T19:56:20.796Z,100424.63
2022-10-04T19:59:11.154Z,100428.72
2022-10-04T20:01:40.826Z,100425.97
2022-10-04T20:04:38.588Z,100423.06
2022-10-04T20:07:23.365Z,100428.59
2022-10-04T20:10:18.128Z,100436.25
2022-10-04T20:13:13.473Z,100433.72
2022-10-04T20:15:48.832Z,100436.38
2022-10-04T20:18:33.411Z,100440.19
2022-10-04T20:21:09.552Z,100438.81
2022-10-04T20:23:39.270Z,100447.94
2022-10-04T20:26:42.869Z,100444.81
2022-10-04T20:29:12.445Z,100453.34
2022-10-04T20:31:41.892Z,100453.44
2022-10-04T20:34:38.435Z,100450.16
2022-10-04T20:37:09.441Z,100456.13
2022-10-04T20:39:41.110Z,100457.69
2022-10-04T20:42:19.959Z,100456.81
2022-10-04T20:44:55.667Z,100464.34
2022-10-04T20:47:46.858Z,100467.00
2022-10-04T20:50:26.756Z,100460.66
2022-10-04T20:53:25.441Z,100461.84
2022-10-04T20:56:29.273Z,100457.69
2022-10-04T20:59:03.669Z,100468.06
2022-10-04T21:01:37.451Z,100467.06
2022-10-04T21:04:31.299Z,100469.56
2022-10-04T21:07:02.947Z,100473.75
2022-10-04T21:09:34.420Z,100473.63
2022-10-04T21:12:06.171Z,100471.63
2022-10-04T21:14:38.232Z,100483.97
2022-10-04T21:17:31.693Z,100477.38
2022-10-04T21:20:00.300Z,100481.25
2022-10-04T21:22:29.102Z,100487.72
2022-10-04T21:25:05.766Z,100480.13
2022-10-04T21:27:44.362Z,100483.63
2022-10-04T21:30:17.544Z,100475.25
2022-10-04T21:32:46.798Z,100484.50
2022-10-04T21:35:18.035Z,100488.38
2022-10-04T21:37:47.548Z,100485.44
2022-10-04T21:40:16.179Z,100492.25
2022-10-04T21:42:45.545Z,100489.84
2022-10-04T21:45:14.215Z,100491.59
2022-10-04T21:47:43.638Z,100491.78
2022-10-04T21:50:12.339Z,100492.75
2022-10-04T21:52:40.939Z,100491.13
2022-10-04T21:55:10.789Z,100487.28
2022-10-04T21:57:39.416Z,100497.31
2022-10-04T22:00:10.306Z,100491.41
2022-10-04T22:02:39.852Z,100497.63
2022-10-04T22:05:09.248Z,100500.78
2022-10-04T22:07:37.879Z,100504.06
2022-10-04T22:10:07.710Z,100511.00
2022-10-04T22:12:37.126Z,100510.75
2022-10-04T22:15:07.878Z,100521.25
2022-10-04T22:17:35.774Z,100515.94
2022-10-04T22:20:06.732Z,100517.31
2022-10-04T22:22:39.085Z,100514.41
2022-10-04T22:25:21.589Z,100513.25
2022-10-04T22:27:52.074Z,100514.28
2022-10-04T22:30:28.629Z,100525.13
2022-10-04T22:33:01.059Z,100522.78
2022-10-04T22:35:32.068Z,100524.38
2022-10-04T22:38:00.663Z,100522.69
2022-10-04T22:40:29.649Z,100530.44
2022-10-04T22:43:01.040Z,100530.88
2022-10-04T22:45:33.725Z,100539.38
2022-10-04T22:48:14.314Z,100528.94
2022-10-04T22:50:42.898Z,100532.94
2022-10-04T22:53:18.964Z,100531.16
2022-10-04T22:55:56.040Z,100528.88
2022-10-04T22:58:24.869Z,100530.84
2022-10-04T23:00:52.648Z,100535.72
2022-10-04T23:03:34.667Z,100527.88
2022-10-04T23:06:04.195Z,100531.16
2022-10-04T23:08:32.863Z,100532.41
2022-10-04T23:11:01.384Z,100543.97
2022-10-04T23:13:30.072Z,100532.94
2022-10-04T23:16:20.632Z,100538.91
2022-10-04T23:18:48.453Z,100547.09
2022-10-04T23:21:23.794Z,100549.03
2022-10-04T23:23:53.684Z,100555.72
2022-10-04T23:26:27.744Z,100554.81
2022-10-04T23:28:55.441Z,100555.28
2022-10-04T23:31:27.087Z,100555.22
2022-10-04T23:33:58.016Z,100559.28
2022-10-04T23:36:26.224Z,100554.16
2022-10-04T23:39:01.280Z,100561.56
2022-10-04T23:41:29.511Z,100567.63
2022-10-04T23:43:58.137Z,100571.78
2022-10-04T23:46:26.746Z,100581.31
2022-10-04T23:48:54.510Z,100583.72
2022-10-04T23:51:23.313Z,100578.00
2022-10-04T23:53:51.952Z,100582.47
2022-10-04T23:56:25.360Z,100580.03
2022-10-04T23:58:58.195Z,100583.94
